createdAt,value
2019-03-22T00:02:42.237Z,23.03
2019-03-22T00:12:47.472Z,22.10
2019-03-22T00:22:53.007Z,22.17
2019-03-22T00:32:58.223Z,20.83
2019-03-22T00:43:03.451Z,21.77
2019-03-22T00:53:09.017Z,21.50
2019-03-22T01:03:14.305Z,21.70
2019-03-22T01:13:19.303Z,21.47
2019-03-22T01:23:24.506Z,22.93
2019-03-22T01:33:29.765Z,21.97
2019-03-22T01:43:34.742Z,22.53
2019-03-22T01:53:39.802Z,20.93
2019-03-22T02:03:45.385Z,22.73
2019-03-22T02:13:50.578Z,23.77
2019-03-22T02:23:55.540Z,22.30
2019-03-22T02:34:00.670Z,22.17
2019-03-22T02:44:06.146Z,28.87
2019-03-22T02:54:11.899Z,25.47
2019-03-22T03:04:17.065Z,27.67
2019-03-22T03:14:22.061Z,26.53
2019-03-22T03:24:27.217Z,26.93
2019-03-22T03:34:32.428Z,27.40
2019-03-22T03:44:37.422Z,27.27
2019-03-22T03:54:42.792Z,26.87
2019-03-22T04:04:47.773Z,29.27
2019-03-22T04:14:53.167Z,27.37
2019-03-22T04:24:58.400Z,28.00
2019-03-22T04:35:03.781Z,27.10
2019-03-22T04:45:09.345Z,29.07
2019-03-22T04:55:15.974Z,28.00
2019-03-22T05:05:21.504Z,28.33
2019-03-22T05:15:26.990Z,27.13
2019-03-22T05:25:32.884Z,28.37
2019-03-22T05:35:38.883Z,26.83
2019-03-22T05:45:43.953Z,24.93
2019-03-22T05:55:48.962Z,29.40
2019-03-22T06:05:55.193Z,25.23
2019-03-22T06:16:00.721Z,26.20
2019-03-22T06:26:06.164Z,24.70
2019-03-22T06:36:11.515Z,24.37
2019-03-22T06:46:17.321Z,23.63
2019-03-22T06:56:22.630Z,22.37
2019-03-22T07:06:28.185Z,23.27
2019-03-22T07:16:33.721Z,22.00
2019-03-22T07:26:39.199Z,19.97
2019-03-22T07:36:46.869Z,20.97
2019-03-22T07:46:51.063Z,18.90
2019-03-22T07:56:56.672Z,17.80
2019-03-22T08:07:01.820Z,16.57
2019-03-22T08:17:07.096Z,13.50
2019-03-22T08:27:12.560Z,12.40
2019-03-22T08:37:18.451Z,12.23
2019-03-22T08:47:33.245Z,10.60
2019-03-22T08:57:30.608Z,9.57
2019-03-22T09:07:36.748Z,8.57
2019-03-22T09:17:41.830Z,7.03
2019-03-22T09:27:47.187Z,6.03
2019-03-22T09:37:52.596Z,6.53
2019-03-22T09:47:58.163Z,5.37
2019-03-22T09:58:03.552Z,5.37
2019-03-22T10:08:08.891Z,3.80
2019-03-22T10:18:14.130Z,4.40
2019-03-22T10:28:19.226Z,3.90
2019-03-22T10:38:31.881Z,2.70
2019-03-22T10:48:31.271Z,3.57
2019-03-22T10:58:36.450Z,2.53
2019-03-22T11:08:42.262Z,2.47
2019-03-22T11:18:48.123Z,2.80
2019-03-22T11:28:53.314Z,3.73
2019-03-22T11:38:58.783Z,3.60
2019-03-22T11:49:04.313Z,3.00
2019-03-22T11:59:09.689Z,3.37
2019-03-22T12:09:14.915Z,2.90
2019-03-22T12:19:20.106Z,3.40
2019-03-22T12:29:25.296Z,3.03
2019-03-22T12:39:30.716Z,3.60
2019-03-22T12:49:36.090Z,6.33
2019-03-22T12:59:41.279Z,4.37
2019-03-22T13:09:46.924Z,3.57
2019-03-22T13:19:52.083Z,2.90
2019-03-22T13:29:57.130Z,2.63
2019-03-22T13:40:02.667Z,2.30
2019-03-22T13:50:08.029Z,4.00
2019-03-22T14:00:13.594Z,2.87
2019-03-22T14:10:29.077Z,3.37
2019-03-22T14:20:34.780Z,2.70
2019-03-22T14:30:40.648Z,3.00
2019-03-22T14:40:45.901Z,3.03
2019-03-22T14:50:50.960Z,2.77
2019-03-22T15:00:56.282Z,3.20
2019-03-22T15:11:01.426Z,2.97
2019-03-22T15:21:38.406Z,3.10
2019-03-22T15:31:55.215Z,3.13
2019-03-22T15:42:00.588Z,4.53
2019-03-22T15:52:06.006Z,3.77
2019-03-22T16:02:11.141Z,3.50
2019-03-22T16:12:16.592Z,2.90
2019-03-22T16:22:21.615Z,2.63
2019-03-22T16:32:27.105Z,2.07
2019-03-22T16:42:32.376Z,2.47
2019-03-22T16:52:37.397Z,2.63
2019-03-22T17:02:42.827Z,7.87
2019-03-22T17:12:48.068Z,3.30
2019-03-22T17:22:53.227Z,3.77
2019-03-22T17:32:58.644Z,3.80
2019-03-22T17:43:03.848Z,7.37
2019-03-22T17:53:09.110Z,4.73
2019-03-22T18:03:15.212Z,4.13
2019-03-22T18:13:21.470Z,3.90
2019-03-22T18:23:35.482Z,6.00
2019-03-22T18:33:33.349Z,4.90
2019-03-22T18:43:38.550Z,5.53
2019-03-22T18:53:45.012Z,7.43
2019-03-22T19:03:50.223Z,9.03
2019-03-22T19:13:56.221Z,7.80
2019-03-22T19:24:01.552Z,8.70
2019-03-22T19:34:07.204Z,6.67
2019-03-22T19:44:12.448Z,7.97
2019-03-22T19:54:17.736Z,7.97
2019-03-22T20:04:23.569Z,8.70
2019-03-22T20:14:28.658Z,7.90
2019-03-22T20:24:34.177Z,8.50
2019-03-22T20:34:39.296Z,9.90
2019-03-22T20:44:47.013Z,10.20
2019-03-22T20:54:52.612Z,10.90
2019-03-22T21:04:57.796Z,15.73
2019-03-22T21:15:03.018Z,13.47
2019-03-22T21:25:08.588Z,13.07
2019-03-22T21:35:22.312Z,14.97
2019-03-22T21:45:20.711Z,14.10
2019-03-22T21:55:26.153Z,12.00
2019-03-22T22:05:33.189Z,13.20
2019-03-22T22:15:38.316Z,14.83
2019-03-22T22:25:43.494Z,16.93
2019-03-22T22:35:58.164Z,15.07
2019-03-22T22:45:57.157Z,14.90
2019-03-22T22:56:02.464Z,13.03
2019-03-22T23:06:09.715Z,16.33
2019-03-22T23:16:15.666Z,14.90
2019-03-22T23:26:21.163Z,12.60
2019-03-22T23:36:26.468Z,11.93
2019-03-22T23:46:31.919Z,13.63
2019-03-22T23:56:36.982Z,12.57
